Дата Пункты Температура Давл., мм. Влажн., % Ветер Погодные явления
Воздуха Воды Направл. Скорость
07.10.14 11:00 Одесса 12.0 16.0 769 84 С 9 12 часов
07.10.14 08:00 Одесса 12.0 16.0 769 84 С 10 09 часов
07.10.14 05:00 Одесса 13.0 16.0 769 80 С 10 06 часов
07.10.14 02:00 Одесса 13.0 16.0 769 70 С 12 03 часа
06.10.14 08:00 Одесса 15.0 16.0 768 62 С 9 21 час
06.10.14 05:00 Одесса 15.0 17.0 768 58 С 4 18 часов
06.10.14 02:00 Одесса 16.0 17.0 768 59 С 4 15 часов
06.10.14 11:00 Одесса 14.0 16.0 768 70 С 5 12 часов
06.10.14 08:00 Одесса 12.0 16.0 767 78 Пн-С 4 09 часов
06.10.14 05:00 Одесса 14.0 17.0 766 68 С 4 06 часов
06.10.14 02:00 Одесса 14.0 17.0 765 63 С 6 03 часа
05.10.14 08:00 Одесса 10.0 17.0 765 74 Пн 0 21 час
05.10.14 05:00 Одесса 15.0 17.0 764 56 Пд 1 18 часов
05.10.14 02:00 Одесса 16.0 17.0 764 52 С 3 15 часов
05.10.14 11:00 Одесса 15.0 17.0 765 57 Пн 2 12 часов
05.10.14 08:00 Одесса 10.0 17.0 765 65 Пн-З 2 09 часов
05.10.14 05:00 Одесса 7.0 17.0 764 81 Пн-З 2 06 часов
05.10.14 02:00 Одесса 8.0 17.0 764 77 Пн-З 1 03 часа
04.10.14 08:00 Одесса 10.0 17.0 764 74 Пн-З 2 21 час
04.10.14 05:00 Одесса 14.0 17.0 764 54 Пн 0 18 часов
Количество строк
471 472 473 474 475 476 477 478 479 480
Page 472 of 481